sensor_id;sensor_type;location;lat;lon;timestamp;temperature;humidity
26262;DHT22;13988;52.446;13.280;2024-02-21T00:00:45;7.30;99.90
26262;DHT22;13988;52.446;13.280;2024-02-21T00:03:11;7.30;99.90
26262;DHT22;13988;52.446;13.280;2024-02-21T00:05:36;7.30;99.90
26262;DHT22;13988;52.446;13.280;2024-02-21T00:08:02;7.30;99.90
26262;DHT22;13988;52.446;13.280;2024-02-21T00:10:28;7.40;99.90
26262;DHT22;13988;52.446;13.280;2024-02-21T00:12:54;7.40;99.90
26262;DHT22;13988;52.446;13.280;2024-02-21T00:15:20;7.40;99.90
26262;DHT22;13988;52.446;13.280;2024-02-21T00:17:46;7.40;99.90
26262;DHT22;13988;52.446;13.280;2024-02-21T00:20:13;7.40;99.90
26262;DHT22;13988;52.446;13.280;2024-02-21T00:22:39;7.50;99.90
26262;DHT22;13988;52.446;13.280;2024-02-21T00:25:04;7.50;99.90
26262;DHT22;13988;52.446;13.280;2024-02-21T00:27:30;7.50;99.90
26262;DHT22;13988;52.446;13.280;2024-02-21T00:29:57;7.50;99.90
26262;DHT22;13988;52.446;13.280;2024-02-21T00:32:23;7.50;99.90
26262;DHT22;13988;52.446;13.280;2024-02-21T00:34:48;7.50;99.90
26262;DHT22;13988;52.446;13.280;2024-02-21T00:37:14;7.50;99.90
26262;DHT22;13988;52.446;13.280;2024-02-21T00:39:39;7.50;99.90
26262;DHT22;13988;52.446;13.280;2024-02-21T00:42:05;7.40;99.90
26262;DHT22;13988;52.446;13.280;2024-02-21T00:44:32;7.50;99.90
26262;DHT22;13988;52.446;13.280;2024-02-21T00:46:58;7.50;99.90
26262;DHT22;13988;52.446;13.280;2024-02-21T00:49:23;7.50;99.90
26262;DHT22;13988;52.446;13.280;2024-02-21T00:51:49;7.50;99.90
26262;DHT22;13988;52.446;13.280;2024-02-21T00:54:15;7.50;99.90
26262;DHT22;13988;52.446;13.280;2024-02-21T00:56:41;7.50;99.90
26262;DHT22;13988;52.446;13.280;2024-02-21T00:59:07;7.50;99.90
26262;DHT22;13988;52.446;13.280;2024-02-21T01:01:32;7.50;99.90
26262;DHT22;13988;52.446;13.280;2024-02-21T01:03:58;7.50;99.90
26262;DHT22;13988;52.446;13.280;2024-02-21T01:06:24;7.50;99.90
26262;DHT22;13988;52.446;13.280;2024-02-21T01:08:49;7.50;99.90
26262;DHT22;13988;52.446;13.280;2024-02-21T01:11:18;7.60;99.90
26262;DHT22;13988;52.446;13.280;2024-02-21T01:13:44;7.60;99.90
26262;DHT22;13988;52.446;13.280;2024-02-21T01:16:10;7.60;99.90
26262;DHT22;13988;52.446;13.280;2024-02-21T01:18:37;7.50;99.90
26262;DHT22;13988;52.446;13.280;2024-02-21T01:21:03;7.60;99.90
26262;DHT22;13988;52.446;13.280;2024-02-21T01:23:35;7.60;99.90
26262;DHT22;13988;52.446;13.280;2024-02-21T01:26:02;7.60;99.90
26262;DHT22;13988;52.446;13.280;2024-02-21T01:28:28;7.60;99.90
26262;DHT22;13988;52.446;13.280;2024-02-21T01:30:54;7.60;99.90
26262;DHT22;13988;52.446;13.280;2024-02-21T01:33:21;7.50;99.90
26262;DHT22;13988;52.446;13.280;2024-02-21T01:35:46;7.60;99.90
26262;DHT22;13988;52.446;13.280;2024-02-21T01:38:15;7.50;99.90
26262;DHT22;13988;52.446;13.280;2024-02-21T01:40:42;7.60;99.90
26262;DHT22;13988;52.446;13.280;2024-02-21T01:43:19;7.60;99.90
26262;DHT22;13988;52.446;13.280;2024-02-21T01:45:48;7.70;99.90
26262;DHT22;13988;52.446;13.280;2024-02-21T01:48:15;7.70;99.90
26262;DHT22;13988;52.446;13.280;2024-02-21T01:50:41;7.60;99.90
26262;DHT22;13988;52.446;13.280;2024-02-21T01:53:07;7.60;99.90
26262;DHT22;13988;52.446;13.280;2024-02-21T01:55:33;7.60;99.90
26262;DHT22;13988;52.446;13.280;2024-02-21T01:57:59;7.50;99.90
26262;DHT22;13988;52.446;13.280;2024-02-21T02:00:25;7.60;99.90
26262;DHT22;13988;52.446;13.280;2024-02-21T02:02:51;7.60;99.90
26262;DHT22;13988;52.446;13.280;2024-02-21T02:05:18;7.60;99.90
26262;DHT22;13988;52.446;13.280;2024-02-21T02:07:46;7.60;99.90
26262;DHT22;13988;52.446;13.280;2024-02-21T02:10:12;7.60;99.90
26262;DHT22;13988;52.446;13.280;2024-02-21T02:12:38;7.50;99.90
26262;DHT22;13988;52.446;13.280;2024-02-21T02:15:03;7.50;99.90
26262;DHT22;13988;52.446;13.280;2024-02-21T02:17:32;7.50;99.90
26262;DHT22;13988;52.446;13.280;2024-02-21T02:19:58;7.50;99.90
26262;DHT22;13988;52.446;13.280;2024-02-21T02:22:28;7.50;99.90
26262;DHT22;13988;52.446;13.280;2024-02-21T02:24:54;7.50;99.90
26262;DHT22;13988;52.446;13.280;2024-02-21T02:27:20;7.40;99.90
26262;DHT22;13988;52.446;13.280;2024-02-21T02:29:48;7.40;99.90
26262;DHT22;13988;52.446;13.280;2024-02-21T02:32:14;7.40;99.90
26262;DHT22;13988;52.446;13.280;2024-02-21T02:34:40;7.40;99.90
26262;DHT22;13988;52.446;13.280;2024-02-21T02:37:06;7.40;99.90
26262;DHT22;13988;52.446;13.280;2024-02-21T02:39:31;7.40;99.90
26262;DHT22;13988;52.446;13.280;2024-02-21T02:41:57;7.40;99.90
26262;DHT22;13988;52.446;13.280;2024-02-21T02:44:23;7.40;99.90
26262;DHT22;13988;52.446;13.280;2024-02-21T02:46:49;7.40;99.90
26262;DHT22;13988;52.446;13.280;2024-02-21T02:49:15;7.50;99.90
26262;DHT22;13988;52.446;13.280;2024-02-21T02:51:43;7.40;99.90
26262;DHT22;13988;52.446;13.280;2024-02-21T02:54:10;7.40;99.90
26262;DHT22;13988;52.446;13.280;2024-02-21T02:56:36;7.40;99.90
26262;DHT22;13988;52.446;13.280;2024-02-21T02:59:01;7.40;99.90
26262;DHT22;13988;52.446;13.280;2024-02-21T03:01:27;7.40;99.90
26262;DHT22;13988;52.446;13.280;2024-02-21T03:03:53;7.40;99.90
26262;DHT22;13988;52.446;13.280;2024-02-21T03:06:19;7.40;99.90
26262;DHT22;13988;52.446;13.280;2024-02-21T03:08:45;7.40;99.90
26262;DHT22;13988;52.446;13.280;2024-02-21T03:11:10;7.30;99.90
26262;DHT22;13988;52.446;13.280;2024-02-21T03:13:36;7.30;99.90
26262;DHT22;13988;52.446;13.280;2024-02-21T03:16:02;7.30;99.90
26262;DHT22;13988;52.446;13.280;2024-02-21T03:18:28;7.30;99.90
26262;DHT22;13988;52.446;13.280;2024-02-21T03:20:53;7.30;99.90
26262;DHT22;13988;52.446;13.280;2024-02-21T03:23:19;7.30;99.90
26262;DHT22;13988;52.446;13.280;2024-02-21T03:25:45;7.30;99.90
26262;DHT22;13988;52.446;13.280;2024-02-21T03:28:10;7.30;99.90
26262;DHT22;13988;52.446;13.280;2024-02-21T03:30:36;7.30;99.90
26262;DHT22;13988;52.446;13.280;2024-02-21T03:33:02;7.30;99.90
26262;DHT22;13988;52.446;13.280;2024-02-21T03:35:28;7.20;99.90
26262;DHT22;13988;52.446;13.280;2024-02-21T03:37:54;7.20;99.90
26262;DHT22;13988;52.446;13.280;2024-02-21T03:40:20;7.30;99.90
26262;DHT22;13988;52.446;13.280;2024-02-21T03:42:45;7.30;99.90
26262;DHT22;13988;52.446;13.280;2024-02-21T03:45:11;7.20;99.90
26262;DHT22;13988;52.446;13.280;2024-02-21T03:47:37;7.20;99.90
26262;DHT22;13988;52.446;13.280;2024-02-21T03:50:02;7.20;99.90
26262;DHT22;13988;52.446;13.280;2024-02-21T03:52:28;7.20;99.90
26262;DHT22;13988;52.446;13.280;2024-02-21T03:54:53;7.20;99.90
26262;DHT22;13988;52.446;13.280;2024-02-21T03:57:20;7.20;99.90
26262;DHT22;13988;52.446;13.280;2024-02-21T03:59:46;7.20;99.90
26262;DHT22;13988;52.446;13.280;2024-02-21T04:02:15;7.20;99.90
26262;DHT22;13988;52.446;13.280;2024-02-21T04:04:45;7.20;99.90
26262;DHT22;13988;52.446;13.280;2024-02-21T04:07:13;7.20;99.90
26262;DHT22;13988;52.446;13.280;2024-02-21T04:09:38;7.20;99.90
26262;DHT22;13988;52.446;13.280;2024-02-21T04:12:04;7.20;99.90
26262;DHT22;13988;52.446;13.280;2024-02-21T04:14:30;7.10;99.90
26262;DHT22;13988;52.446;13.280;2024-02-21T04:16:56;7.10;99.90
26262;DHT22;13988;52.446;13.280;2024-02-21T04:19:21;7.10;99.90
26262;DHT22;13988;52.446;13.280;2024-02-21T04:21:47;7.10;99.90
26262;DHT22;13988;52.446;13.280;2024-02-21T04:24:12;7.10;99.90
26262;DHT22;13988;52.446;13.280;2024-02-21T04:26:38;7.10;99.90
26262;DHT22;13988;52.446;13.280;2024-02-21T04:29:04;7.20;99.90
26262;DHT22;13988;52.446;13.280;2024-02-21T04:31:32;7.10;99.90
26262;DHT22;13988;52.446;13.280;2024-02-21T04:33:58;7.10;99.90
26262;DHT22;13988;52.446;13.280;2024-02-21T04:36:23;7.20;99.90
26262;DHT22;13988;52.446;13.280;2024-02-21T04:38:49;7.10;99.90
26262;DHT22;13988;52.446;13.280;2024-02-21T04:41:15;7.10;99.90
26262;DHT22;13988;52.446;13.280;2024-02-21T04:43:41;7.10;99.90
26262;DHT22;13988;52.446;13.280;2024-02-21T04:46:06;7.10;99.90
26262;DHT22;13988;52.446;13.280;2024-02-21T04:48:32;7.10;99.90
26262;DHT22;13988;52.446;13.280;2024-02-21T04:50:58;7.20;99.90
26262;DHT22;13988;52.446;13.280;2024-02-21T04:53:24;7.10;99.90
26262;DHT22;13988;52.446;13.280;2024-02-21T04:55:49;7.10;99.90
26262;DHT22;13988;52.446;13.280;2024-02-21T04:58:15;7.10;99.90
26262;DHT22;13988;52.446;13.280;2024-02-21T05:00:40;7.10;99.90
26262;DHT22;13988;52.446;13.280;2024-02-21T05:03:06;7.10;99.90
26262;DHT22;13988;52.446;13.280;2024-02-21T05:05:31;7.10;99.90
26262;DHT22;13988;52.446;13.280;2024-02-21T05:07:57;7.10;99.90
26262;DHT22;13988;52.446;13.280;2024-02-21T05:10:23;7.10;99.90
26262;DHT22;13988;52.446;13.280;2024-02-21T05:12:48;7.10;99.90
26262;DHT22;13988;52.446;13.280;2024-02-21T05:15:14;7.10;99.90
26262;DHT22;13988;52.446;13.280;2024-02-21T05:17:39;7.10;99.90
26262;DHT22;13988;52.446;13.280;2024-02-21T05:20:06;7.10;99.90
26262;DHT22;13988;52.446;13.280;2024-02-21T05:22:31;7.10;99.90
26262;DHT22;13988;52.446;13.280;2024-02-21T05:24:57;7.10;99.90
26262;DHT22;13988;52.446;13.280;2024-02-21T05:27:23;7.10;99.90
26262;DHT22;13988;52.446;13.280;2024-02-21T05:29:48;7.10;99.90
26262;DHT22;13988;52.446;13.280;2024-02-21T05:32:14;7.10;99.90
26262;DHT22;13988;52.446;13.280;2024-02-21T05:34:40;7.10;99.90
26262;DHT22;13988;52.446;13.280;2024-02-21T05:37:05;7.10;99.90
26262;DHT22;13988;52.446;13.280;2024-02-21T05:39:31;7.10;99.90
26262;DHT22;13988;52.446;13.280;2024-02-21T05:41:57;7.10;99.90
26262;DHT22;13988;52.446;13.280;2024-02-21T05:44:22;7.10;99.90
26262;DHT22;13988;52.446;13.280;2024-02-21T05:46:48;7.10;99.90
26262;DHT22;13988;52.446;13.280;2024-02-21T05:49:13;7.20;99.90
26262;DHT22;13988;52.446;13.280;2024-02-21T05:51:40;7.20;99.90
26262;DHT22;13988;52.446;13.280;2024-02-21T05:54:05;7.20;99.90
26262;DHT22;13988;52.446;13.280;2024-02-21T05:56:32;7.20;99.90
26262;DHT22;13988;52.446;13.280;2024-02-21T05:58:58;7.20;99.90
26262;DHT22;13988;52.446;13.280;2024-02-21T06:01:24;7.20;99.90
26262;DHT22;13988;52.446;13.280;2024-02-21T06:03:49;7.20;99.90
26262;DHT22;13988;52.446;13.280;2024-02-21T06:06:15;7.20;99.90
26262;DHT22;13988;52.446;13.280;2024-02-21T06:08:41;7.20;99.90
26262;DHT22;13988;52.446;13.280;2024-02-21T06:11:07;7.20;99.90
26262;DHT22;13988;52.446;13.280;2024-02-21T06:13:32;7.20;99.90
26262;DHT22;13988;52.446;13.280;2024-02-21T06:15:58;7.20;99.90
26262;DHT22;13988;52.446;13.280;2024-02-21T06:18:23;7.20;99.90
26262;DHT22;13988;52.446;13.280;2024-02-21T06:20:49;7.20;99.90
26262;DHT22;13988;52.446;13.280;2024-02-21T06:23:18;7.20;99.90
26262;DHT22;13988;52.446;13.280;2024-02-21T06:25:43;7.20;99.90
26262;DHT22;13988;52.446;13.280;2024-02-21T06:28:09;7.20;99.90
26262;DHT22;13988;52.446;13.280;2024-02-21T06:30:35;7.20;99.90
26262;DHT22;13988;52.446;13.280;2024-02-21T06:33:01;7.30;99.90
26262;DHT22;13988;52.446;13.280;2024-02-21T06:35:28;7.30;99.90
26262;DHT22;13988;52.446;13.280;2024-02-21T06:37:54;7.30;99.90
26262;DHT22;13988;52.446;13.280;2024-02-21T06:40:21;7.30;99.90
26262;DHT22;13988;52.446;13.280;2024-02-21T06:42:47;7.30;99.90
26262;DHT22;13988;52.446;13.280;2024-02-21T06:45:13;7.30;99.90
26262;DHT22;13988;52.446;13.280;2024-02-21T06:47:38;7.30;99.90
26262;DHT22;13988;52.446;13.280;2024-02-21T06:50:04;7.30;99.90
26262;DHT22;13988;52.446;13.280;2024-02-21T06:52:30;7.30;99.90
26262;DHT22;13988;52.446;13.280;2024-02-21T06:54:56;7.30;99.90
26262;DHT22;13988;52.446;13.280;2024-02-21T06:57:22;7.40;99.90
26262;DHT22;13988;52.446;13.280;2024-02-21T06:59:49;7.40;99.90
26262;DHT22;13988;52.446;13.280;2024-02-21T07:02:14;7.40;99.90
26262;DHT22;13988;52.446;13.280;2024-02-21T07:04:40;7.40;99.90
26262;DHT22;13988;52.446;13.280;2024-02-21T07:07:06;7.40;99.90
26262;DHT22;13988;52.446;13.280;2024-02-21T07:09:31;7.50;99.90
26262;DHT22;13988;52.446;13.280;2024-02-21T07:12:00;7.40;99.90
26262;DHT22;13988;52.446;13.280;2024-02-21T07:14:28;7.40;99.90
26262;DHT22;13988;52.446;13.280;2024-02-21T07:16:53;7.40;99.90
26262;DHT22;13988;52.446;13.280;2024-02-21T07:19:19;7.40;99.90
26262;DHT22;13988;52.446;13.280;2024-02-21T07:21:45;7.40;99.90
26262;DHT22;13988;52.446;13.280;2024-02-21T07:24:11;7.50;99.90
26262;DHT22;13988;52.446;13.280;2024-02-21T07:26:37;7.40;99.90
26262;DHT22;13988;52.446;13.280;2024-02-21T07:29:02;7.40;99.90
26262;DHT22;13988;52.446;13.280;2024-02-21T07:31:28;7.40;99.90
26262;DHT22;13988;52.446;13.280;2024-02-21T07:33:54;7.40;99.90
26262;DHT22;13988;52.446;13.280;2024-02-21T07:36:28;7.40;99.90
26262;DHT22;13988;52.446;13.280;2024-02-21T07:38:55;7.50;99.90
26262;DHT22;13988;52.446;13.280;2024-02-21T07:41:20;7.50;99.90
26262;DHT22;13988;52.446;13.280;2024-02-21T07:43:46;7.50;99.90
26262;DHT22;13988;52.446;13.280;2024-02-21T07:46:14;7.50;99.90
26262;DHT22;13988;52.446;13.280;2024-02-21T07:48:39;7.50;99.90
26262;DHT22;13988;52.446;13.280;2024-02-21T07:51:05;7.50;99.90
26262;DHT22;13988;52.446;13.280;2024-02-21T07:53:31;7.50;99.90
26262;DHT22;13988;52.446;13.280;2024-02-21T07:55:56;7.50;99.90
26262;DHT22;13988;52.446;13.280;2024-02-21T07:58:22;7.50;99.90
26262;DHT22;13988;52.446;13.280;2024-02-21T08:00:48;7.50;99.90
26262;DHT22;13988;52.446;13.280;2024-02-21T08:03:14;7.50;99.90
26262;DHT22;13988;52.446;13.280;2024-02-21T08:05:41;7.60;99.90
26262;DHT22;13988;52.446;13.280;2024-02-21T08:08:06;7.60;99.90
26262;DHT22;13988;52.446;13.280;2024-02-21T08:10:33;7.60;99.90
26262;DHT22;13988;52.446;13.280;2024-02-21T08:12:59;7.60;99.90
26262;DHT22;13988;52.446;13.280;2024-02-21T08:15:25;7.60;99.90
26262;DHT22;13988;52.446;13.280;2024-02-21T08:17:55;7.70;99.90
26262;DHT22;13988;52.446;13.280;2024-02-21T08:20:24;7.70;99.90
26262;DHT22;13988;52.446;13.280;2024-02-21T08:22:50;7.70;99.90
26262;DHT22;13988;52.446;13.280;2024-02-21T08:25:15;7.80;99.90
26262;DHT22;13988;52.446;13.280;2024-02-21T08:27:41;7.80;99.90
26262;DHT22;13988;52.446;13.280;2024-02-21T08:30:07;7.90;99.90
26262;DHT22;13988;52.446;13.280;2024-02-21T08:32:33;7.90;99.90
26262;DHT22;13988;52.446;13.280;2024-02-21T08:35:01;7.90;99.90
26262;DHT22;13988;52.446;13.280;2024-02-21T08:37:30;7.90;99.90
26262;DHT22;13988;52.446;13.280;2024-02-21T08:39:55;8.00;99.90
26262;DHT22;13988;52.446;13.280;2024-02-21T08:42:21;8.00;99.90
26262;DHT22;13988;52.446;13.280;2024-02-21T08:44:46;8.10;99.90
26262;DHT22;13988;52.446;13.280;2024-02-21T08:47:12;8.10;99.90
26262;DHT22;13988;52.446;13.280;2024-02-21T08:49:38;8.10;99.90
26262;DHT22;13988;52.446;13.280;2024-02-21T08:52:04;8.30;99.90
26262;DHT22;13988;52.446;13.280;2024-02-21T08:54:30;8.50;99.90
26262;DHT22;13988;52.446;13.280;2024-02-21T08:56:56;8.60;99.90
26262;DHT22;13988;52.446;13.280;2024-02-21T08:59:22;8.60;99.90
26262;DHT22;13988;52.446;13.280;2024-02-21T09:01:47;8.70;99.90
26262;DHT22;13988;52.446;13.280;2024-02-21T09:04:13;8.70;99.90
26262;DHT22;13988;52.446;13.280;2024-02-21T09:06:39;8.70;99.90
26262;DHT22;13988;52.446;13.280;2024-02-21T09:09:08;8.60;99.90
26262;DHT22;13988;52.446;13.280;2024-02-21T09:11:34;8.80;99.90
26262;DHT22;13988;52.446;13.280;2024-02-21T09:14:00;8.80;99.90
26262;DHT22;13988;52.446;13.280;2024-02-21T09:16:25;8.80;99.90
26262;DHT22;13988;52.446;13.280;2024-02-21T09:18:51;8.80;99.90
26262;DHT22;13988;52.446;13.280;2024-02-21T09:21:18;8.90;99.90
26262;DHT22;13988;52.446;13.280;2024-02-21T09:23:44;9.00;99.90
26262;DHT22;13988;52.446;13.280;2024-02-21T09:26:10;9.00;99.90
26262;DHT22;13988;52.446;13.280;2024-02-21T09:28:39;9.00;99.90
26262;DHT22;13988;52.446;13.280;2024-02-21T09:31:05;9.20;99.90
26262;DHT22;13988;52.446;13.280;2024-02-21T09:33:30;9.20;99.90
26262;DHT22;13988;52.446;13.280;2024-02-21T09:35:56;9.30;99.90
26262;DHT22;13988;52.446;13.280;2024-02-21T09:38:22;9.20;99.90
26262;DHT22;13988;52.446;13.280;2024-02-21T09:40:48;9.20;99.90
26262;DHT22;13988;52.446;13.280;2024-02-21T09:43:17;9.20;99.90
26262;DHT22;13988;52.446;13.280;2024-02-21T09:45:46;9.30;99.90
26262;DHT22;13988;52.446;13.280;2024-02-21T09:50:45;9.40;99.90
26262;DHT22;13988;52.446;13.280;2024-02-21T09:53:13;9.50;99.90
26262;DHT22;13988;52.446;13.280;2024-02-21T09:55:40;9.50;99.90
26262;DHT22;13988;52.446;13.280;2024-02-21T09:58:07;9.50;99.90
26262;DHT22;13988;52.446;13.280;2024-02-21T10:00:34;9.50;99.90
26262;DHT22;13988;52.446;13.280;2024-02-21T10:03:00;9.40;99.90
26262;DHT22;13988;52.446;13.280;2024-02-21T10:05:26;9.50;99.90
26262;DHT22;13988;52.446;13.280;2024-02-21T10:07:52;9.40;99.90
26262;DHT22;13988;52.446;13.280;2024-02-21T10:10:19;9.40;99.90
26262;DHT22;13988;52.446;13.280;2024-02-21T10:12:51;9.50;99.90
26262;DHT22;13988;52.446;13.280;2024-02-21T10:15:20;9.50;99.90
26262;DHT22;13988;52.446;13.280;2024-02-21T10:17:47;9.50;99.90
26262;DHT22;13988;52.446;13.280;2024-02-21T10:20:13;9.60;99.90
26262;DHT22;13988;52.446;13.280;2024-02-21T10:22:40;9.70;99.90
26262;DHT22;13988;52.446;13.280;2024-02-21T10:25:10;9.80;99.90
26262;DHT22;13988;52.446;13.280;2024-02-21T10:27:39;9.80;99.90
26262;DHT22;13988;52.446;13.280;2024-02-21T10:30:13;9.80;99.90
26262;DHT22;13988;52.446;13.280;2024-02-21T10:32:54;9.80;99.90
26262;DHT22;13988;52.446;13.280;2024-02-21T10:35:28;9.60;99.90
26262;DHT22;13988;52.446;13.280;2024-02-21T10:37:58;9.50;99.90
26262;DHT22;13988;52.446;13.280;2024-02-21T10:40:28;9.60;99.90
26262;DHT22;13988;52.446;13.280;2024-02-21T10:42:58;9.60;99.90
26262;DHT22;13988;52.446;13.280;2024-02-21T10:45:34;9.60;99.90
26262;DHT22;13988;52.446;13.280;2024-02-21T10:48:29;9.70;99.90
26262;DHT22;13988;52.446;13.280;2024-02-21T10:51:07;9.60;99.90
26262;DHT22;13988;52.446;13.280;2024-02-21T10:54:15;9.60;99.90
26262;DHT22;13988;52.446;13.280;2024-02-21T10:56:45;9.50;99.90
26262;DHT22;13988;52.446;13.280;2024-02-21T10:59:13;9.70;99.90
26262;DHT22;13988;52.446;13.280;2024-02-21T11:01:39;9.50;99.90
26262;DHT22;13988;52.446;13.280;2024-02-21T11:04:06;9.60;99.90
26262;DHT22;13988;52.446;13.280;2024-02-21T11:06:33;9.50;99.90
26262;DHT22;13988;52.446;13.280;2024-02-21T11:09:03;9.80;99.90
26262;DHT22;13988;52.446;13.280;2024-02-21T11:11:34;10.00;99.90
26262;DHT22;13988;52.446;13.280;2024-02-21T11:14:19;10.20;99.90
26262;DHT22;13988;52.446;13.280;2024-02-21T11:16:45;10.20;99.90
26262;DHT22;13988;52.446;13.280;2024-02-21T11:19:25;10.40;99.90
26262;DHT22;13988;52.446;13.280;2024-02-21T11:21:52;10.40;99.90
26262;DHT22;13988;52.446;13.280;2024-02-21T11:24:32;10.30;99.90
26262;DHT22;13988;52.446;13.280;2024-02-21T11:27:09;10.30;99.90
26262;DHT22;13988;52.446;13.280;2024-02-21T11:29:49;10.10;99.90
26262;DHT22;13988;52.446;13.280;2024-02-21T11:32:17;10.20;99.90
26262;DHT22;13988;52.446;13.280;2024-02-21T11:35:18;10.50;99.90
26262;DHT22;13988;52.446;13.280;2024-02-21T11:37:44;10.60;99.90
26262;DHT22;13988;52.446;13.280;2024-02-21T11:40:12;10.60;99.90
26262;DHT22;13988;52.446;13.280;2024-02-21T11:42:38;10.50;99.90
26262;DHT22;13988;52.446;13.280;2024-02-21T11:45:04;10.60;99.90
26262;DHT22;13988;52.446;13.280;2024-02-21T11:47:29;10.90;99.90
26262;DHT22;13988;52.446;13.280;2024-02-21T11:49:55;11.20;99.90
26262;DHT22;13988;52.446;13.280;2024-02-21T11:52:22;11.10;99.90
26262;DHT22;13988;52.446;13.280;2024-02-21T11:54:51;11.40;99.90
26262;DHT22;13988;52.446;13.280;2024-02-21T11:57:17;11.90;99.90
26262;DHT22;13988;52.446;13.280;2024-02-21T11:59:44;12.40;99.90
26262;DHT22;13988;52.446;13.280;2024-02-21T12:02:11;11.80;99.90
26262;DHT22;13988;52.446;13.280;2024-02-21T12:04:37;11.80;99.90
26262;DHT22;13988;52.446;13.280;2024-02-21T12:07:03;11.40;99.90
26262;DHT22;13988;52.446;13.280;2024-02-21T12:09:31;11.50;99.90
26262;DHT22;13988;52.446;13.280;2024-02-21T12:12:02;11.40;99.90
26262;DHT22;13988;52.446;13.280;2024-02-21T12:14:33;11.60;99.90
26262;DHT22;13988;52.446;13.280;2024-02-21T12:17:00;11.90;99.90
26262;DHT22;13988;52.446;13.280;2024-02-21T12:19:29;11.90;99.90
26262;DHT22;13988;52.446;13.280;2024-02-21T12:21:55;12.60;99.90
26262;DHT22;13988;52.446;13.280;2024-02-21T12:24:24;12.10;99.90
26262;DHT22;13988;52.446;13.280;2024-02-21T12:26:53;11.80;99.90
26262;DHT22;13988;52.446;13.280;2024-02-21T12:29:22;11.60;99.90
26262;DHT22;13988;52.446;13.280;2024-02-21T12:31:50;11.50;99.90
26262;DHT22;13988;52.446;13.280;2024-02-21T12:34:16;11.20;99.90
26262;DHT22;13988;52.446;13.280;2024-02-21T12:36:43;11.10;99.90
26262;DHT22;13988;52.446;13.280;2024-02-21T12:39:13;11.10;99.90
26262;DHT22;13988;52.446;13.280;2024-02-21T12:41:39;11.10;99.90
26262;DHT22;13988;52.446;13.280;2024-02-21T12:44:06;11.30;99.90
26262;DHT22;13988;52.446;13.280;2024-02-21T12:46:36;11.40;99.90
26262;DHT22;13988;52.446;13.280;2024-02-21T12:49:03;11.70;99.90
26262;DHT22;13988;52.446;13.280;2024-02-21T12:51:29;11.80;99.90
26262;DHT22;13988;52.446;13.280;2024-02-21T12:53:55;11.70;99.90
26262;DHT22;13988;52.446;13.280;2024-02-21T12:56:21;11.60;99.90
26262;DHT22;13988;52.446;13.280;2024-02-21T12:58:46;11.70;99.90
26262;DHT22;13988;52.446;13.280;2024-02-21T13:01:12;11.60;99.90
26262;DHT22;13988;52.446;13.280;2024-02-21T13:03:38;11.60;99.90
26262;DHT22;13988;52.446;13.280;2024-02-21T13:06:04;11.60;99.90
26262;DHT22;13988;52.446;13.280;2024-02-21T13:08:30;11.50;99.90
26262;DHT22;13988;52.446;13.280;2024-02-21T13:10:56;11.40;99.90
26262;DHT22;13988;52.446;13.280;2024-02-21T13:13:22;11.40;99.90
26262;DHT22;13988;52.446;13.280;2024-02-21T13:15:47;11.50;99.90
26262;DHT22;13988;52.446;13.280;2024-02-21T13:18:13;11.80;99.90
26262;DHT22;13988;52.446;13.280;2024-02-21T13:20:39;12.90;99.90
26262;DHT22;13988;52.446;13.280;2024-02-21T13:23:04;12.70;99.90
26262;DHT22;13988;52.446;13.280;2024-02-21T13:25:30;12.80;99.90
26262;DHT22;13988;52.446;13.280;2024-02-21T13:27:55;13.20;99.90
26262;DHT22;13988;52.446;13.280;2024-02-21T13:30:22;13.20;99.90
26262;DHT22;13988;52.446;13.280;2024-02-21T13:32:48;13.30;99.90
26262;DHT22;13988;52.446;13.280;2024-02-21T13:35:14;12.90;99.90
26262;DHT22;13988;52.446;13.280;2024-02-21T13:37:41;12.40;99.90
26262;DHT22;13988;52.446;13.280;2024-02-21T13:40:07;12.30;99.90
26262;DHT22;13988;52.446;13.280;2024-02-21T13:42:37;11.90;99.90
26262;DHT22;13988;52.446;13.280;2024-02-21T13:45:03;11.60;99.90
26262;DHT22;13988;52.446;13.280;2024-02-21T13:47:30;11.60;99.90
26262;DHT22;13988;52.446;13.280;2024-02-21T13:49:56;11.60;99.90
26262;DHT22;13988;52.446;13.280;2024-02-21T13:52:22;11.80;99.90
26262;DHT22;13988;52.446;13.280;2024-02-21T13:54:48;12.00;99.90
26262;DHT22;13988;52.446;13.280;2024-02-21T13:57:13;11.80;99.90
26262;DHT22;13988;52.446;13.280;2024-02-21T13:59:40;11.80;99.90
26262;DHT22;13988;52.446;13.280;2024-02-21T14:02:05;11.60;99.90
26262;DHT22;13988;52.446;13.280;2024-02-21T14:04:33;11.60;99.90
26262;DHT22;13988;52.446;13.280;2024-02-21T14:06:59;11.40;99.90
26262;DHT22;13988;52.446;13.280;2024-02-21T14:09:26;11.40;99.90
26262;DHT22;13988;52.446;13.280;2024-02-21T14:11:51;11.50;99.90
26262;DHT22;13988;52.446;13.280;2024-02-21T14:14:17;11.60;99.90
26262;DHT22;13988;52.446;13.280;2024-02-21T14:16:43;11.60;99.90
26262;DHT22;13988;52.446;13.280;2024-02-21T14:19:09;11.50;99.90
26262;DHT22;13988;52.446;13.280;2024-02-21T14:21:35;11.60;99.90
26262;DHT22;13988;52.446;13.280;2024-02-21T14:24:05;11.70;99.90
26262;DHT22;13988;52.446;13.280;2024-02-21T14:26:30;11.70;99.90
26262;DHT22;13988;52.446;13.280;2024-02-21T14:28:57;11.60;99.90
26262;DHT22;13988;52.446;13.280;2024-02-21T14:31:23;11.60;99.90
26262;DHT22;13988;52.446;13.280;2024-02-21T14:33:48;11.50;99.90
26262;DHT22;13988;52.446;13.280;2024-02-21T14:36:14;11.50;99.90
26262;DHT22;13988;52.446;13.280;2024-02-21T14:38:43;11.40;99.90
26262;DHT22;13988;52.446;13.280;2024-02-21T14:41:10;11.50;99.90
26262;DHT22;13988;52.446;13.280;2024-02-21T14:43:38;11.40;99.90
26262;DHT22;13988;52.446;13.280;2024-02-21T14:46:04;11.30;99.90
26262;DHT22;13988;52.446;13.280;2024-02-21T14:48:31;11.30;99.90
26262;DHT22;13988;52.446;13.280;2024-02-21T14:50:58;11.30;99.90
26262;DHT22;13988;52.446;13.280;2024-02-21T14:53:23;11.20;99.90
26262;DHT22;13988;52.446;13.280;2024-02-21T14:55:49;11.30;99.90
26262;DHT22;13988;52.446;13.280;2024-02-21T14:58:16;11.30;99.90
26262;DHT22;13988;52.446;13.280;2024-02-21T15:00:43;11.20;99.90
26262;DHT22;13988;52.446;13.280;2024-02-21T15:03:09;11.20;99.90
26262;DHT22;13988;52.446;13.280;2024-02-21T15:05:36;11.20;99.90
26262;DHT22;13988;52.446;13.280;2024-02-21T15:08:03;11.30;99.90
26262;DHT22;13988;52.446;13.280;2024-02-21T15:10:28;11.20;99.90
26262;DHT22;13988;52.446;13.280;2024-02-21T15:12:54;11.20;99.90
26262;DHT22;13988;52.446;13.280;2024-02-21T15:15:20;11.20;99.90
26262;DHT22;13988;52.446;13.280;2024-02-21T15:17:45;11.40;99.90
26262;DHT22;13988;52.446;13.280;2024-02-21T15:20:11;11.30;99.90
26262;DHT22;13988;52.446;13.280;2024-02-21T15:22:37;11.20;99.90
26262;DHT22;13988;52.446;13.280;2024-02-21T15:25:04;11.10;99.90
26262;DHT22;13988;52.446;13.280;2024-02-21T15:27:33;10.90;99.90